Time;durP1;ratioP1;P1;durP2;ratioP2;P2;SDS_P1;SDS_P2;PMS_P1;PMS_P2;Temp;Humidity;BMP_temperature;BMP_pressure;BME280_temperature;BME280_humidity;BME280_pressure;Samples;Min_cycle;Max_cycle;Signal;HPM_P1;HPM_P2
2024/02/15 00:00:16;;;;;;;5.00;2.47;;;12.00;89.90;;;;;;6305058;22;19992;-81
2024/02/15 00:02:44;;;;;;;4.90;2.72;;;12.10;89.90;;;;;;6280256;22;20011;-81
2024/02/15 00:05:12;;;;;;;5.30;2.97;;;12.00;89.80;;;;;;6281779;22;19991;-80
2024/02/15 00:07:38;;;;;;;4.68;2.60;;;12.10;90.10;;;;;;6306831;22;20499;-81
2024/02/15 00:10:08;;;;;;;4.70;2.60;;;12.10;89.90;;;;;;6328493;22;20033;-80
2024/02/15 00:12:37;;;;;;;4.17;2.43;;;12.20;90.00;;;;;;6338329;22;19991;-80
2024/02/15 00:15:06;;;;;;;4.93;2.78;;;12.70;90.10;;;;;;6286081;22;20083;-80
2024/02/15 00:17:32;;;;;;;4.63;2.67;;;12.10;89.90;;;;;;6311733;22;20021;-81
2024/02/15 00:20:00;;;;;;;4.38;2.45;;;12.10;89.90;;;;;;6337745;22;19983;-80
2024/02/15 00:22:36;;;;;;;5.60;2.85;;;12.10;89.90;;;;;;6337692;22;20010;-81
2024/02/15 00:25:05;;;;;;;4.32;2.78;;;12.10;89.90;;;;;;6311333;22;19987;-80
2024/02/15 00:27:46;;;;;;;5.47;2.50;;;12.10;89.90;;;;;;6338061;22;19987;-80
2024/02/15 00:32:47;;;;;;;4.13;2.35;;;12.10;89.90;;;;;;6305765;22;20015;-80
2024/02/15 00:35:13;;;;;;;4.25;2.65;;;12.10;89.90;;;;;;6279952;22;20043;-80
2024/02/15 00:37:41;;;;;;;5.72;2.85;;;12.10;89.90;;;;;;6279699;22;20068;-80
2024/02/15 00:40:08;;;;;;;4.60;2.80;;;12.10;89.90;;;;;;6305847;22;19992;-79
2024/02/15 00:42:34;;;;;;;4.13;2.38;;;12.00;89.90;;;;;;6254435;22;20026;-80
2024/02/15 00:45:00;;;;;;;4.55;2.63;;;12.10;89.90;;;;;;6306275;22;20027;-80
2024/02/15 00:47:25;;;;;;;4.90;2.83;;;12.10;89.90;;;;;;6306429;22;19988;-81
2024/02/15 00:49:51;;;;;;;4.82;2.83;;;12.70;90.10;;;;;;6280023;22;19995;-80
2024/02/15 00:52:20;;;;;;;4.05;2.53;;;12.20;90.00;;;;;;6279661;22;20010;-80
2024/02/15 00:54:51;;;;;;;5.00;2.60;;;12.20;90.00;;;;;;6280398;22;20063;-80
2024/02/15 00:57:17;;;;;;;4.23;2.60;;;12.10;89.90;;;;;;6306167;22;19988;-79
2024/02/15 00:59:43;;;;;;;4.45;2.65;;;12.10;89.90;;;;;;6279580;22;20027;-79
2024/02/15 01:02:09;;;;;;;4.65;2.60;;;12.10;90.00;;;;;;6278982;22;20038;-79
2024/02/15 01:04:35;;;;;;;4.80;2.90;;;12.10;90.00;;;;;;6305533;22;20003;-79
2024/02/15 01:07:01;;;;;;;4.43;2.72;;;12.10;90.00;;;;;;6279637;22;19991;-80
2024/02/15 01:09:26;;;;;;;6.07;3.08;;;12.10;90.00;;;;;;6305718;22;20000;-80
2024/02/15 01:11:52;;;;;;;5.53;2.88;;;12.10;90.00;;;;;;6279208;22;19991;-80
2024/02/15 01:14:17;;;;;;;4.40;2.70;;;12.70;90.10;;;;;;6279566;22;20000;-79
2024/02/15 01:16:44;;;;;;;4.80;2.75;;;12.10;90.00;;;;;;6280159;22;20013;-79
2024/02/15 01:19:10;;;;;;;4.28;2.55;;;12.00;89.90;;;;;;6279762;22;19998;-80
2024/02/15 01:21:37;;;;;;;4.40;2.65;;;12.10;90.00;;;;;;6306293;22;19987;-79
2024/02/15 01:24:07;;;;;;;4.97;2.85;;;12.90;90.10;;;;;;6306291;22;20008;-79
2024/02/15 01:26:34;;;;;;;4.80;2.90;;;12.00;89.90;;;;;;6280129;22;20010;-80
2024/02/15 01:29:00;;;;;;;3.85;2.50;;;12.10;90.00;;;;;;6279277;22;19992;-80
2024/02/15 01:31:50;;;;;;;4.85;3.10;;;12.10;90.00;;;;;;6306358;22;20011;-81
2024/02/15 01:34:16;;;;;;;;;;;12.10;90.00;;;;;;6280630;22;20007;-80
2024/02/15 01:36:42;;;;;;;4.18;2.53;;;12.20;90.00;;;;;;6280076;22;19931;-80
2024/02/15 01:39:08;;;;;;;4.88;3.03;;;12.10;90.00;;;;;;6305788;22;20354;-80
2024/02/15 01:41:33;;;;;;;3.88;2.53;;;12.10;89.90;;;;;;6305660;22;20048;-80
2024/02/15 01:43:59;;;;;;;5.35;2.90;;;12.30;90.00;;;;;;6305749;22;20034;-80
2024/02/15 01:46:25;;;;;;;4.55;2.95;;;12.10;90.00;;;;;;6279101;22;20003;-80
2024/02/15 01:48:51;;;;;;;4.78;3.00;;;12.20;90.00;;;;;;6279498;22;19988;-80
2024/02/15 01:51:17;;;;;;;5.05;2.70;;;12.30;90.00;;;;;;6279859;22;20011;-80
2024/02/15 01:53:43;;;;;;;4.68;2.72;;;12.00;89.90;;;;;;6306128;22;19984;-79
2024/02/15 01:56:14;;;;;;;5.00;2.88;;;12.10;89.90;;;;;;6279599;22;19984;-80
2024/02/15 01:58:41;;;;;;;4.55;2.70;;;12.10;90.00;;;;;;6280379;22;20014;-80
2024/02/15 02:01:07;;;;;;;4.57;2.67;;;12.20;90.00;;;;;;6254788;22;19994;-80
2024/02/15 02:03:34;;;;;;;4.85;2.95;;;12.00;89.90;;;;;;6279416;22;19991;-79
2024/02/15 02:06:00;;;;;;;4.20;2.60;;;12.10;89.90;;;;;;6305717;22;19988;-80
2024/02/15 02:08:26;;;;;;;4.63;3.00;;;12.10;89.90;;;;;;6279501;22;20018;-79
2024/02/15 02:10:53;;;;;;;4.95;2.97;;;12.10;89.90;;;;;;6279204;22;19996;-80
2024/02/15 02:13:18;;;;;;;5.18;2.80;;;12.10;89.90;;;;;;6279612;22;19996;-80
2024/02/15 02:15:46;;;;;;;4.05;2.60;;;12.00;89.90;;;;;;6279468;22;19998;-79
2024/02/15 02:18:14;;;;;;;4.13;2.67;;;12.10;89.90;;;;;;6254231;22;20034;-80
2024/02/15 02:20:40;;;;;;;4.32;2.78;;;12.10;89.90;;;;;;6305288;22;20010;-80
2024/02/15 02:23:18;;;;;;;4.22;2.80;;;12.30;90.00;;;;;;6305446;22;20000;-80
2024/02/15 02:25:46;;;;;;;4.63;2.90;;;12.10;90.00;;;;;;6305062;22;20008;-81
2024/02/15 02:28:13;;;;;;;4.60;2.80;;;12.10;89.90;;;;;;6279275;22;19988;-81
2024/02/15 02:30:41;;;;;;;10.52;2.85;;;12.10;89.90;;;;;;6279483;22;20008;-80
2024/02/15 02:33:18;;;;;;;4.57;2.75;;;12.10;89.90;;;;;;6279403;22;20004;-80
2024/02/15 02:35:44;;;;;;;4.57;2.85;;;12.10;90.00;;;;;;6279508;22;19988;-80
2024/02/15 02:38:10;;;;;;;5.30;3.28;;;12.00;89.90;;;;;;6279086;22;19987;-79
2024/02/15 02:40:36;;;;;;;4.43;2.78;;;12.10;90.00;;;;;;6279023;22;20014;-79
2024/02/15 02:43:02;;;;;;;5.05;2.65;;;12.10;90.00;;;;;;6305548;22;19999;-80
2024/02/15 02:45:28;;;;;;;4.35;2.75;;;12.10;90.00;;;;;;6253856;22;20047;-80
2024/02/15 02:47:58;;;;;;;4.55;2.80;;;12.10;90.00;;;;;;6305491;22;19987;-81
2024/02/15 02:50:24;;;;;;;4.63;2.80;;;12.20;90.00;;;;;;6254451;22;20039;-80
2024/02/15 02:52:50;;;;;;;4.80;2.60;;;12.10;90.00;;;;;;6305193;22;20035;-80
2024/02/15 02:55:17;;;;;;;4.70;2.85;;;12.10;90.00;;;;;;6304889;22;19984;-79
2024/02/15 02:57:43;;;;;;;5.00;2.80;;;12.10;90.00;;;;;;6305323;22;19991;-79
2024/02/15 03:00:16;;;;;;;4.63;2.95;;;12.00;89.90;;;;;;6282218;22;20145;-80
2024/02/15 03:02:56;;;;;;;4.35;2.72;;;12.10;90.00;;;;;;6336560;22;19999;-80
2024/02/15 03:05:24;;;;;;;4.20;2.67;;;12.10;90.00;;;;;;6336211;22;20000;-80
2024/02/15 03:07:51;;;;;;;4.53;2.83;;;12.10;90.00;;;;;;6310387;22;20018;-79
2024/02/15 03:10:31;;;;;;;4.35;2.70;;;12.00;90.00;;;;;;6310477;22;20023;-80
2024/02/15 03:12:57;;;;;;;4.57;2.88;;;12.00;89.90;;;;;;6336600;22;19983;-77
2024/02/15 03:15:24;;;;;;;5.00;2.85;;;12.10;90.00;;;;;;6336499;22;20022;-80
2024/02/15 03:17:52;;;;;;;4.32;2.72;;;12.10;90.00;;;;;;6336505;22;19987;-80
2024/02/15 03:20:21;;;;;;;3.75;2.50;;;12.10;90.00;;;;;;6336215;22;20003;-80
2024/02/15 03:22:57;;;;;;;4.63;2.75;;;12.10;90.00;;;;;;6309540;22;19996;-79
2024/02/15 03:25:24;;;;;;;4.70;2.90;;;12.30;90.00;;;;;;6309803;22;19994;-80
2024/02/15 03:27:52;;;;;;;4.00;2.53;;;12.10;90.00;;;;;;6309631;22;20007;-80
2024/02/15 03:30:20;;;;;;;4.15;2.65;;;12.10;90.00;;;;;;6309662;22;19989;-81
2024/02/15 03:32:53;;;;;;;3.90;2.58;;;12.10;90.00;;;;;;6310007;22;19991;-79
2024/02/15 03:35:20;;;;;;;4.35;2.90;;;12.10;90.00;;;;;;6309784;22;20039;-79
2024/02/15 03:37:46;;;;;;;4.60;2.80;;;12.10;90.00;;;;;;6335872;22;20003;-80
2024/02/15 03:40:12;;;;;;;3.83;2.53;;;12.00;89.90;;;;;;6309283;22;20018;-79
2024/02/15 03:42:37;;;;;;;4.50;2.70;;;12.10;90.00;;;;;;6309112;22;20013;-79
2024/02/15 03:45:06;;;;;;;4.20;2.72;;;12.20;90.00;;;;;;6336171;22;19983;-80
2024/02/15 03:47:33;;;;;;;4.65;3.10;;;12.20;90.00;;;;;;6336476;22;20051;-80
2024/02/15 03:50:01;;;;;;;4.53;2.50;;;13.00;90.20;;;;;;6309045;22;20002;-80
2024/02/15 03:52:26;;;;;;;4.53;2.60;;;12.10;90.00;;;;;;6336389;22;19988;-79
2024/02/15 03:54:53;;;;;;;5.20;2.70;;;12.10;90.00;;;;;;6309315;22;19994;-79
2024/02/15 03:57:20;;;;;;;4.38;2.83;;;12.00;90.00;;;;;;6308678;22;19992;-80
2024/02/15 03:59:52;;;;;;;5.00;3.10;;;12.10;90.00;;;;;;6335733;22;19991;-80
2024/02/15 04:02:19;;;;;;;4.47;2.80;;;12.60;90.10;;;;;;6310101;22;20078;-79
2024/02/15 04:04:47;;;;;;;4.72;2.67;;;12.00;90.00;;;;;;6309022;22;19996;-80
2024/02/15 04:07:15;;;;;;;4.40;2.78;;;11.20;89.50;;;;;;6335526;22;19994;-80
2024/02/15 04:09:42;;;;;;;4.97;3.20;;;12.10;90.00;;;;;;6283628;22;19990;-79
2024/02/15 04:12:07;;;;;;;4.43;2.75;;;12.00;90.00;;;;;;6334947;22;20006;-79
2024/02/15 04:14:34;;;;;;;5.00;2.80;;;13.00;90.20;;;;;;6335588;22;19984;-80
2024/02/15 04:17:01;;;;;;;4.22;2.80;;;12.10;90.00;;;;;;6308827;22;20019;-80
2024/02/15 04:19:28;;;;;;;4.45;2.75;;;12.10;90.00;;;;;;6309510;22;19987;-81
2024/02/15 04:21:58;;;;;;;4.80;3.15;;;12.10;90.00;;;;;;6309331;22;20015;-79
2024/02/15 04:24:25;;;;;;;4.38;2.85;;;12.10;90.00;;;;;;6334490;22;20026;-80
2024/02/15 04:26:52;;;;;;;4.53;2.65;;;12.20;90.00;;;;;;6309283;22;19995;-80
2024/02/15 04:29:20;;;;;;;4.38;2.55;;;12.10;90.00;;;;;;6325612;22;19987;-81
2024/02/15 04:31:49;;;;;;;4.47;2.72;;;12.00;90.00;;;;;;6335937;22;20007;-80
2024/02/15 04:34:34;;;;;;;5.07;3.17;;;12.10;90.00;;;;;;6331764;22;20035;-79
2024/02/15 04:37:01;;;;;;;4.63;2.83;;;11.90;90.00;;;;;;6309451;22;19992;-81
2024/02/15 04:39:30;;;;;;;4.85;2.90;;;11.90;90.20;;;;;;6336173;22;20009;-81
2024/02/15 04:41:57;;;;;;;5.30;3.10;;;12.10;90.00;;;;;;6310178;22;20019;-80
2024/02/15 04:44:27;;;;;;;5.05;3.10;;;12.10;90.00;;;;;;6309528;22;19987;-80
2024/02/15 04:47:04;;;;;;;5.10;3.17;;;12.10;90.00;;;;;;6335809;22;20015;-80
2024/02/15 04:49:30;;;;;;;5.30;3.35;;;12.20;90.00;;;;;;6310873;22;20014;-79
2024/02/15 04:52:01;;;;;;;5.22;3.15;;;12.00;90.00;;;;;;6310926;22;20166;-80
2024/02/15 04:54:27;;;;;;;5.30;3.20;;;11.90;90.00;;;;;;6311240;22;20007;-80
2024/02/15 04:56:54;;;;;;;4.75;3.00;;;12.10;90.00;;;;;;6337865;22;20017;-79
2024/02/15 04:59:21;;;;;;;4.95;3.08;;;12.10;90.00;;;;;;6337432;22;20007;-80
2024/02/15 05:01:49;;;;;;;4.93;2.90;;;12.10;90.00;;;;;;6311116;22;20007;-80
2024/02/15 05:04:15;;;;;;;5.53;3.40;;;12.10;90.00;;;;;;6336892;22;20039;-80
2024/02/15 05:06:41;;;;;;;5.30;3.33;;;12.00;90.00;;;;;;6337401;22;19998;-80
2024/02/15 05:09:07;;;;;;;5.13;3.17;;;12.10;90.00;;;;;;6337396;22;19995;-80
2024/02/15 05:11:36;;;;;;;5.90;3.88;;;12.10;90.00;;;;;;6310112;22;19992;-79
2024/02/15 05:14:06;;;;;;;6.20;4.07;;;12.10;90.00;;;;;;6337037;22;19987;-80
2024/02/15 05:16:41;;;;;;;5.07;3.33;;;12.20;90.00;;;;;;6310229;22;19991;-80
2024/02/15 05:19:07;;;;;;;5.57;3.67;;;12.10;90.00;;;;;;6337167;22;20063;-81
2024/02/15 05:21:33;;;;;;;5.65;3.42;;;12.00;90.00;;;;;;6337190;22;20015;-80
2024/02/15 05:23:59;;;;;;;6.40;4.13;;;12.10;90.00;;;;;;6310020;22;19997;-80
2024/02/15 05:26:25;;;;;;;5.63;3.67;;;12.00;90.00;;;;;;6337203;22;19994;-80
2024/02/15 05:28:50;;;;;;;5.50;3.40;;;12.00;90.00;;;;;;6310770;22;20027;-80
2024/02/15 05:31:20;;;;;;;5.97;3.70;;;12.10;90.00;;;;;;6310657;22;20485;-80
2024/02/15 05:33:50;;;;;;;6.32;4.05;;;12.20;90.10;;;;;;6336970;22;19987;-80
2024/02/15 05:36:21;;;;;;;6.22;3.80;;;12.20;90.10;;;;;;6310161;22;19987;-80
2024/02/15 05:39:02;;;;;;;5.95;3.90;;;12.00;90.00;;;;;;6310486;22;20011;-82
2024/02/15 05:46:41;;;;;;;5.93;3.95;;;12.10;90.00;;;;;;6336194;22;20003;-80
2024/02/15 05:51:42;;;;;;;6.10;3.85;;;12.10;90.00;;;;;;6302349;22;20010;-79
2024/02/15 05:54:08;;;;;;;6.45;3.80;;;12.10;90.10;;;;;;6302281;22;20003;-80
2024/02/15 05:56:55;;;;;;;6.10;3.90;;;12.00;90.00;;;;;;6278009;22;19988;-80
2024/02/15 06:07:25;;;;;;;6.30;4.07;;;12.10;90.10;;;;;;6328852;22;20079;-80
2024/02/15 06:09:52;;;;;;;6.47;3.90;;;12.20;90.30;;;;;;6309348;22;20003;-80
2024/02/15 06:12:35;;;;;;;6.43;4.18;;;12.10;90.10;;;;;;6335829;22;20010;-81
2024/02/15 06:15:17;;;;;;;6.72;4.18;;;12.10;90.10;;;;;;6332599;22;20030;-81
2024/02/15 06:17:46;;;;;;;6.50;3.95;;;12.10;90.10;;;;;;6330087;22;19991;-80
2024/02/15 06:20:35;;;;;;;6.18;3.83;;;12.10;90.10;;;;;;6326070;22;22296;-81
2024/02/15 06:57:58;;;;;;;6.32;3.85;;;12.10;90.10;;;;;;6316522;22;20023;-79
2024/02/15 07:09:40;;;;;;;5.90;3.63;;;12.10;90.10;;;;;;6336120;22;19995;-81
2024/02/15 07:12:09;;;;;;;6.10;3.83;;;12.00;90.10;;;;;;6310217;22;20018;-81
2024/02/15 07:28:50;;;;;;;6.57;3.78;;;12.10;90.20;;;;;;6241081;22;20557;-82
2024/02/15 07:39:36;;;;;;;6.25;3.80;;;12.10;90.30;;;;;;6326449;22;20039;-81
2024/02/15 08:05:22;;;;;;;6.43;3.75;;;12.10;90.20;;;;;;6336561;22;20073;-83
2024/02/15 08:21:09;;;;;;;5.82;3.42;;;12.10;90.30;;;;;;6326585;22;20025;-81
2024/02/15 10:56:05;;;;;;;27.73;4.60;;;12.20;91.00;;;;;;5096266;27;1175263;-76
2024/02/15 10:58:37;;;;;;;23.75;4.57;;;12.30;91.20;;;;;;5108386;28;20266;-76
2024/02/15 11:01:08;;;;;;;25.73;4.22;;;12.20;91.10;;;;;;5109707;28;20089;-76
2024/02/15 11:03:36;;;;;;;21.13;4.00;;;12.10;91.10;;;;;;5124912;27;20016;-76
2024/02/15 11:06:06;;;;;;;24.77;4.43;;;12.10;91.20;;;;;;5108263;28;20499;-77
2024/02/15 11:08:32;;;;;;;25.13;3.88;;;12.10;91.20;;;;;;5108992;28;20024;-75
2024/02/15 11:10:58;;;;;;;20.10;3.78;;;12.10;91.20;;;;;;5108679;28;20130;-75
2024/02/15 11:13:24;;;;;;;28.88;3.75;;;12.10;91.20;;;;;;5108268;28;20041;-75
2024/02/15 11:15:51;;;;;;;16.70;3.50;;;12.10;91.20;;;;;;5109626;28;20107;-75
2024/02/15 11:18:41;;;;;;;21.77;4.22;;;12.10;91.30;;;;;;5109442;28;20568;-75
2024/02/15 11:21:06;;;;;;;20.98;3.88;;;12.10;91.30;;;;;;5127939;28;20034;-77
2024/02/15 11:23:32;;;;;;;18.48;3.50;;;12.10;91.30;;;;;;5128684;28;20024;-75
2024/02/15 11:26:00;;;;;;;13.25;3.15;;;12.10;91.30;;;;;;5130157;28;20049;-77
2024/02/15 11:28:29;;;;;;;15.68;3.30;;;12.10;91.30;;;;;;5128938;28;20027;-76
2024/02/15 11:30:58;;;;;;;20.08;3.40;;;12.10;91.50;;;;;;5128905;28;20054;-76
2024/02/15 11:33:27;;;;;;;21.63;3.45;;;12.10;91.30;;;;;;5130406;28;20119;-77
2024/02/15 11:36:12;;;;;;;19.63;3.85;;;12.10;91.20;;;;;;5132202;27;20054;-77
2024/02/15 11:38:41;;;;;;;21.75;4.05;;;12.10;91.20;;;;;;5132715;27;20019;-76
2024/02/15 11:41:10;;;;;;;16.63;3.20;;;12.10;91.20;;;;;;5123926;28;20561;-77
2024/02/15 11:43:45;;;;;;;16.20;3.90;;;12.10;91.20;;;;;;5130108;28;20039;-77
2024/02/15 11:46:18;;;;;;;15.63;3.40;;;12.10;91.20;;;;;;5130948;27;20019;-77
2024/02/15 11:48:44;;;;;;;13.23;3.03;;;12.10;91.20;;;;;;5131313;27;20023;-77
2024/02/15 11:51:11;;;;;;;13.27;2.85;;;12.10;91.20;;;;;;5130616;27;20028;-77
2024/02/15 11:53:37;;;;;;;12.93;2.75;;;12.10;91.20;;;;;;5122872;28;20042;-75
2024/02/15 11:56:04;;;;;;;15.98;2.97;;;12.10;91.20;;;;;;5128709;28;20034;-78
2024/02/15 11:58:41;;;;;;;10.98;2.40;;;12.10;91.20;;;;;;5126680;28;20020;-75
2024/02/15 12:20:32;;;;;;;8.13;2.00;;;12.20;91.10;;;;;;5094289;28;20442;-76
2024/02/15 12:23:00;;;;;;;13.93;2.90;;;12.20;91.10;;;;;;5093503;28;20024;-75
2024/02/15 12:25:27;;;;;;;10.48;2.35;;;12.20;91.10;;;;;;5093638;28;20384;-77
2024/02/15 12:27:54;;;;;;;9.80;2.85;;;12.20;91.10;;;;;;5093458;28;20745;-77
2024/02/15 12:30:21;;;;;;;7.47;2.35;;;12.20;91.00;;;;;;5093636;28;20032;-78
2024/02/15 12:32:47;;;;;;;8.15;2.30;;;12.20;91.10;;;;;;5091913;28;20032;-78
2024/02/15 12:35:23;;;;;;;12.55;3.42;;;12.20;91.10;;;;;;5093659;28;20070;-77
2024/02/15 12:38:02;;;;;;;7.20;1.90;;;12.20;91.10;;;;;;5092659;28;20107;-77
2024/02/15 12:40:36;;;;;;;9.43;2.20;;;12.20;91.10;;;;;;5111241;28;20171;-77
2024/02/15 12:43:05;;;;;;;6.95;1.98;;;12.10;91.00;;;;;;5113965;28;20020;-77
2024/02/15 12:45:31;;;;;;;7.18;2.10;;;12.20;91.00;;;;;;5112568;28;20031;-76
2024/02/15 12:47:57;;;;;;;5.68;1.88;;;12.20;91.00;;;;;;5114628;27;20388;-77
2024/02/15 12:50:31;;;;;;;8.57;2.38;;;12.20;91.00;;;;;;5105125;28;20032;-78
2024/02/15 12:53:01;;;;;;;5.55;1.90;;;12.20;91.00;;;;;;5114011;28;20059;-77
2024/02/15 12:55:35;;;;;;;9.02;2.13;;;12.20;91.00;;;;;;5114745;27;20028;-77
2024/02/15 12:58:08;;;;;;;10.00;2.40;;;12.20;91.00;;;;;;5112955;28;20491;-77
2024/02/15 13:00:36;;;;;;;8.00;2.00;;;12.20;91.00;;;;;;5114540;28;20015;-77
2024/02/15 13:03:03;;;;;;;7.60;2.05;;;12.30;91.10;;;;;;5113420;28;20096;-76
2024/02/15 13:05:30;;;;;;;8.70;2.33;;;12.20;91.00;;;;;;5113675;28;20034;-77
2024/02/15 13:08:01;;;;;;;8.32;2.22;;;12.20;90.90;;;;;;5108366;28;20012;-76
2024/02/15 13:10:28;;;;;;;6.38;1.70;;;12.20;90.90;;;;;;5092438;28;20023;-77
2024/02/15 13:12:55;;;;;;;8.35;2.35;;;12.30;90.90;;;;;;5090137;28;20073;-75
2024/02/15 13:15:26;;;;;;;7.07;1.90;;;12.20;90.90;;;;;;5107512;28;20032;-77
2024/02/15 13:17:53;;;;;;;6.30;1.92;;;12.30;90.90;;;;;;5111820;28;20103;-77
2024/02/15 13:20:31;;;;;;;8.55;2.40;;;12.30;90.90;;;;;;5112322;28;20424;-75
2024/02/15 13:23:22;;;;;;;6.28;2.10;;;12.30;90.90;;;;;;5109604;28;20016;-76
2024/02/15 13:25:48;;;;;;;;;;;12.30;91.00;;;;;;5091901;28;20024;-76
2024/02/15 13:28:15;;;;;;;5.70;2.05;;;12.30;91.20;;;;;;5091757;28;19951;-76
2024/02/15 13:30:43;;;;;;;6.00;1.83;;;12.30;90.90;;;;;;5091256;28;20024;-76
2024/02/15 13:33:08;;;;;;;5.63;1.60;;;12.30;91.00;;;;;;5093657;28;20232;-78
2024/02/15 13:35:34;;;;;;;4.93;1.63;;;12.30;91.00;;;;;;5110847;28;20047;-78
2024/02/15 13:37:59;;;;;;;5.85;1.77;;;12.30;91.00;;;;;;5107955;28;20031;-76
2024/02/15 13:40:27;;;;;;;7.15;1.90;;;12.30;91.00;;;;;;5088668;28;20028;-76
2024/02/15 13:42:58;;;;;;;7.75;1.60;;;12.30;91.10;;;;;;5106166;28;20024;-77
2024/02/15 13:45:29;;;;;;;5.18;1.70;;;12.30;91.20;;;;;;5090103;28;20038;-76
2024/02/15 13:47:56;;;;;;;6.38;1.75;;;12.20;91.30;;;;;;5090182;28;20111;-76
2024/02/15 13:50:23;;;;;;;5.45;1.92;;;12.30;91.20;;;;;;5090956;28;20036;-76
2024/02/15 13:52:49;;;;;;;5.30;1.70;;;12.30;91.30;;;;;;5089852;28;20480;-79
2024/02/15 13:55:16;;;;;;;6.18;1.90;;;12.20;91.20;;;;;;5089817;28;20036;-77
2024/02/15 13:57:43;;;;;;;5.35;1.85;;;12.20;91.10;;;;;;5106994;28;20024;-77
2024/02/15 14:00:21;;;;;;;8.35;1.90;;;12.30;91.20;;;;;;5089885;28;20077;-77
2024/02/15 14:02:50;;;;;;;5.20;1.60;;;12.30;91.30;;;;;;5089484;28;20024;-77
2024/02/15 14:05:19;;;;;;;12.02;1.95;;;12.30;91.20;;;;;;5089916;28;20081;-77
2024/02/15 14:07:57;;;;;;;20.95;2.97;;;12.30;91.30;;;;;;5089974;28;20078;-77
2024/02/15 14:10:24;;;;;;;7.43;1.77;;;12.30;91.40;;;;;;5091281;28;20032;-76
2024/02/15 14:13:03;;;;;;;14.05;2.20;;;12.20;91.40;;;;;;5106107;27;20069;-76
2024/02/15 14:15:40;;;;;;;15.25;2.42;;;12.30;91.50;;;;;;5089817;28;20028;-76
2024/02/15 14:18:06;;;;;;;14.80;2.42;;;12.20;91.40;;;;;;5091116;28;20587;-77
2024/02/15 14:20:32;;;;;;;10.68;1.92;;;12.30;91.40;;;;;;5089622;28;20026;-76
2024/02/15 14:22:58;;;;;;;13.82;2.35;;;12.30;91.40;;;;;;5090654;28;20387;-76
2024/02/15 14:25:25;;;;;;;15.57;2.58;;;12.20;91.30;;;;;;5089472;28;20387;-76
2024/02/15 14:27:52;;;;;;;14.02;2.15;;;12.30;91.20;;;;;;5090830;28;20031;-75
2024/02/15 14:33:08;;;;;;;19.65;3.00;;;12.30;91.60;;;;;;5094383;28;20067;-78
2024/02/15 14:35:34;;;;;;;13.35;2.33;;;12.30;91.30;;;;;;5110707;28;20024;-77
2024/02/15 14:38:10;;;;;;;10.30;2.00;;;12.30;91.30;;;;;;5112302;28;20476;-77
2024/02/15 14:40:42;;;;;;;9.00;2.00;;;12.30;91.30;;;;;;5112490;28;20135;-77
2024/02/15 14:43:08;;;;;;;;;;;12.30;91.30;;;;;;5100807;28;20024;-78
2024/02/15 14:45:36;;;;;;;9.23;1.85;;;12.30;91.30;;;;;;5089959;28;20364;-77
2024/02/15 14:48:02;;;;;;;12.48;2.08;;;12.30;91.30;;;;;;5091130;28;20408;-78
2024/02/15 14:50:28;;;;;;;11.23;2.17;;;12.30;91.40;;;;;;5110640;28;20111;-77
2024/02/15 14:52:54;;;;;;;11.40;1.73;;;12.30;91.40;;;;;;5110082;28;20150;-76
2024/02/15 14:55:20;;;;;;;10.10;1.98;;;12.30;91.30;;;;;;5109913;28;20491;-77
2024/02/15 14:57:46;;;;;;;9.88;2.20;;;12.30;91.40;;;;;;5108341;28;20023;-77
2024/02/15 15:00:17;;;;;;;11.90;2.10;;;12.30;91.40;;;;;;5108563;28;20024;-77
2024/02/15 15:02:48;;;;;;;8.95;1.70;;;12.30;91.50;;;;;;5109177;28;20020;-77
2024/02/15 15:13:30;;;;;;;8.77;1.90;;;12.30;91.50;;;;;;5110803;28;20560;-77
2024/02/15 15:15:55;;;;;;;9.13;2.05;;;12.30;91.40;;;;;;5109811;28;20027;-77
2024/02/15 15:18:21;;;;;;;6.30;1.77;;;12.30;91.40;;;;;;5109602;28;20020;-77
2024/02/15 15:20:46;;;;;;;10.02;1.92;;;12.30;91.40;;;;;;5109611;28;20680;-78
2024/02/15 15:23:12;;;;;;;10.38;1.98;;;12.30;91.40;;;;;;5110757;28;20475;-76
2024/02/15 15:25:40;;;;;;;11.15;2.00;;;12.30;91.40;;;;;;5109485;28;20027;-78
2024/02/15 15:28:06;;;;;;;7.97;1.67;;;12.30;91.40;;;;;;5111386;28;20069;-77
2024/02/15 15:30:31;;;;;;;9.15;1.88;;;12.30;91.40;;;;;;5102718;28;20028;-76
2024/02/15 15:32:57;;;;;;;11.57;1.80;;;12.30;91.40;;;;;;5098917;28;20373;-77
2024/02/15 15:35:26;;;;;;;7.35;1.73;;;12.30;91.40;;;;;;5102203;28;20478;-77
2024/02/15 15:37:52;;;;;;;5.82;1.50;;;12.30;91.40;;;;;;5096696;28;20022;-77
2024/02/15 15:40:18;;;;;;;5.93;1.85;;;12.30;91.40;;;;;;5092249;28;20024;-77
2024/02/15 15:42:44;;;;;;;10.02;2.22;;;12.30;91.40;;;;;;5094867;28;20392;-76
2024/02/15 15:45:10;;;;;;;6.35;1.70;;;12.30;91.40;;;;;;5106947;28;20039;-78
2024/02/15 15:47:36;;;;;;;7.63;1.50;;;12.30;91.40;;;;;;5115285;28;20027;-78
2024/02/15 15:50:06;;;;;;;7.47;1.85;;;12.20;91.40;;;;;;5114567;28;20032;-77
2024/02/15 15:52:32;;;;;;;8.20;1.55;;;12.30;91.40;;;;;;5113740;28;20050;-77
2024/02/15 15:54:58;;;;;;;9.48;2.10;;;12.30;91.40;;;;;;5113358;28;20672;-77
2024/02/15 15:57:24;;;;;;;7.82;1.63;;;12.20;91.30;;;;;;5109418;28;20527;-76
2024/02/15 15:59:50;;;;;;;6.70;1.70;;;12.20;91.30;;;;;;5093971;28;20541;-77
2024/02/15 16:02:17;;;;;;;8.70;2.03;;;12.30;91.40;;;;;;5093175;28;20473;-79
2024/02/15 16:04:46;;;;;;;11.57;1.58;;;12.30;91.30;;;;;;5093243;28;20093;-77
2024/02/15 16:07:13;;;;;;;13.23;1.83;;;12.30;91.30;;;;;;5100500;28;20020;-77
2024/02/15 16:09:44;;;;;;;14.18;2.28;;;12.30;91.30;;;;;;5101412;28;20065;-77
2024/02/15 16:12:13;;;;;;;9.40;2.45;;;12.30;91.20;;;;;;5111645;28;20457;-77
2024/02/15 16:14:44;;;;;;;10.73;2.50;;;12.30;91.20;;;;;;5114366;28;20484;-78
2024/02/15 16:17:13;;;;;;;8.93;1.63;;;12.30;91.30;;;;;;5108949;28;20108;-77
2024/02/15 16:19:38;;;;;;;8.88;1.92;;;12.30;91.30;;;;;;5093309;28;20091;-77
2024/02/15 16:22:04;;;;;;;8.82;1.90;;;12.30;91.30;;;;;;5091878;28;20426;-76
2024/02/15 16:24:31;;;;;;;9.85;1.98;;;12.30;91.30;;;;;;5091996;28;20124;-77
2024/02/15 16:26:57;;;;;;;8.45;1.98;;;12.30;91.20;;;;;;5093289;28;20023;-77
2024/02/15 16:29:23;;;;;;;8.48;2.15;;;12.30;91.20;;;;;;5091817;28;20020;-77
2024/02/15 16:31:48;;;;;;;6.97;1.55;;;12.30;91.30;;;;;;5093255;28;20492;-75
2024/02/15 16:34:14;;;;;;;8.00;1.80;;;12.30;91.20;;;;;;5091456;28;20039;-77
2024/02/15 16:36:39;;;;;;;6.07;2.05;;;12.30;91.30;;;;;;5092694;28;20423;-76
2024/02/15 16:39:07;;;;;;;6.75;1.50;;;12.20;91.20;;;;;;5092629;28;20020;-76
2024/02/15 16:41:32;;;;;;;6.30;1.63;;;12.30;91.20;;;;;;5092265;28;20012;-76
2024/02/15 16:43:58;;;;;;;5.88;1.55;;;12.20;91.20;;;;;;5108229;28;20028;-76
2024/02/15 16:46:24;;;;;;;5.75;1.40;;;12.20;91.20;;;;;;5110879;28;20034;-75
2024/02/15 16:48:51;;;;;;;8.73;1.63;;;12.20;91.20;;;;;;5102297;28;20024;-75
2024/02/15 16:51:18;;;;;;;5.32;1.60;;;12.20;91.40;;;;;;5112143;28;20024;-76
2024/02/15 16:53:44;;;;;;;5.82;1.70;;;12.20;91.20;;;;;;5110582;28;20027;-76
2024/02/15 16:56:16;;;;;;;10.40;1.60;;;12.30;91.20;;;;;;5111258;28;20399;-74
2024/02/15 16:58:42;;;;;;;5.10;1.60;;;12.20;91.20;;;;;;5112415;28;20476;-77
2024/02/15 17:01:08;;;;;;;7.72;2.03;;;12.20;91.20;;;;;;5111010;28;20038;-76
2024/02/15 17:03:34;;;;;;;8.80;1.70;;;12.30;91.20;;;;;;5110769;28;20034;-76
2024/02/15 17:06:01;;;;;;;3.72;1.40;;;12.20;91.20;;;;;;5110899;28;20027;-76
2024/02/15 17:08:27;;;;;;;5.97;1.77;;;12.30;91.20;;;;;;5112440;28;20012;-75
2024/02/15 17:10:52;;;;;;;10.77;2.03;;;12.30;91.10;;;;;;5110920;28;20069;-76
2024/02/15 17:13:19;;;;;;;17.80;2.70;;;12.30;91.10;;;;;;5111828;28;20510;-76
2024/02/15 17:15:44;;;;;;;18.38;2.83;;;12.30;91.40;;;;;;5111261;28;20032;-76
2024/02/15 17:18:10;;;;;;;20.80;2.78;;;12.40;91.30;;;;;;5128228;27;20031;-76
2024/02/15 17:20:35;;;;;;;12.77;2.38;;;12.30;91.40;;;;;;5112627;28;20467;-76
2024/02/15 17:23:01;;;;;;;14.23;2.40;;;12.40;91.50;;;;;;5112124;28;20020;-77
2024/02/15 17:25:27;;;;;;;12.80;2.30;;;12.40;91.50;;;;;;5112420;28;20019;-77
2024/02/15 17:27:55;;;;;;;12.52;2.17;;;12.40;91.40;;;;;;5112290;28;20112;-76
2024/02/15 17:30:20;;;;;;;9.73;2.15;;;12.40;91.40;;;;;;5112774;28;20402;-77
2024/02/15 17:32:46;;;;;;;12.90;2.30;;;12.50;91.50;;;;;;5111911;28;20118;-77
2024/02/15 17:35:13;;;;;;;10.68;2.33;;;12.50;91.40;;;;;;5112117;28;20097;-77
2024/02/15 17:37:42;;;;;;;7.28;1.90;;;12.50;91.50;;;;;;5127553;27;20027;-76
2024/02/15 17:40:11;;;;;;;10.98;2.13;;;12.60;91.50;;;;;;5110581;28;20024;-77
2024/02/15 17:42:43;;;;;;;11.43;2.50;;;12.60;91.60;;;;;;5110210;28;20050;-76
2024/02/15 17:45:09;;;;;;;11.65;2.47;;;12.70;91.70;;;;;;5110500;28;20625;-77
2024/02/15 17:47:44;;;;;;;9.00;2.00;;;12.70;91.70;;;;;;5110315;28;20027;-76
2024/02/15 17:50:13;;;;;;;9.30;2.63;;;12.70;91.80;;;;;;5112022;28;20430;-77
2024/02/15 17:52:45;;;;;;;9.38;1.92;;;12.70;92.00;;;;;;5111233;28;20023;-76
2024/02/15 17:55:11;;;;;;;10.18;1.95;;;12.90;92.30;;;;;;5110134;28;20055;-77